Sunday, October 22, 2017, 8:31 PM EDT
Back to Local

KLBE, Latrobe / Westmorland

Location: Latrobe, PA, United States Lat: 40.283
Local Time: 8:31 PM EDT ( 0:31 GMT) Lon: -79.4
Time Zone: US/Eastern Elev: 1184 ft

Show me the last for .
Show Coded

Time T Td Feel RH Dir Speed Gust Alt SLP Vis Weather Sky Remarks
2017-10-22 19:45 68 52 - 56 160° 7 17 30.21 - 10 CLR None
2017-10-22 18:50 70 52 - 52 160° 7 - 30.21 - 10 SCT200 None
2017-10-22 17:50 72 52 76 49 150° 12 - 30.20 - 10 OVC180 None
2017-10-22 16:55 75 52 77 44 150° 8 - 30.21 - 10 CLR None
2017-10-22 15:50 75 52 77 44 - Calm - 30.23 - 10 CLR None
2017-10-22 14:50 75 52 77 44 - Calm - 30.25 - 10 CLR None
2017-10-22 13:50 75 50 77 41 - Calm - 30.27 - 10 CLR None
2017-10-22 12:50 73 52 76 46 - Calm - 30.31 - 10 CLR None
2017-10-22 11:45 72 54 76 53 230° 3 - 30.32 - 10 CLR None
2017-10-22 10:45 68 52 - 56 100° 5 - 30.32 - 10 CLR None
2017-10-22 09:45 59 52 - 77 - Calm - 30.33 - 10 CLR None
2017-10-22 08:45 50 50 - 100 - Calm - 30.33 - 10 CLR None
2017-10-22 07:45 46 46 - 100 - Calm - 30.32 - 10 CLR None
2017-10-22 06:45 48 48 - 100 - Calm - 30.32 - 10 CLR None
2017-10-22 05:55 48 48 - 100 - Calm - 30.31 - 10 CLR None
2017-10-22 05:35 48 48 - 100 - - - 30.31 - 10 CLR None
2017-10-22 05:15 50 48 - 93 - Calm - 30.31 - 10 CLR None
2017-10-22 04:55 48 48 - 100 - Calm - 30.30 - 10 CLR None
2017-10-22 04:35 48 48 - 100 - Calm - 30.30 - 10 CLR None
2017-10-22 04:15 50 48 - 93 - Calm - 30.29 - 10 CLR None
2017-10-22 03:55 50 48 - 93 - Calm - 30.28 - 10 CLR None
2017-10-22 03:35 50 48 - 93 - Calm - 30.28 - 10 CLR None
2017-10-22 03:15 50 48 - 93 - Calm - 30.27 - 10 CLR None
2017-10-22 02:55 50 48 - 93 - Calm - 30.28 - 10 CLR None
2017-10-22 02:35 50 48 - 93 - Calm - 30.27 - 10 CLR None
2017-10-22 02:15 50 48 - 93 - Calm - 30.27 - 10 CLR None
2017-10-22 01:55 52 50 - 93 - Calm - 30.27 - 10 CLR None
2017-10-22 01:35 54 50 - 87 - Calm - 30.28 - 10 CLR None
2017-10-22 01:15 54 48 - 81 - Calm - 30.28 - 10 CLR None
2017-10-22 00:55 55 48 - 76 - Calm - 30.29 - 10 CLR None
2017-10-22 00:35 59 50 - 72 250° 3 - 30.29 - 10 CLR None
2017-10-22 00:15 59 48 - 67 200° 8 - 30.29 - 10 CLR None
2017-10-21 23:55 55 48 - 76 190° 3 - 30.29 - 10 CLR None
2017-10-21 23:35 57 50 - 76 - Calm - 30.30 - 10 CLR None
2017-10-21 23:15 57 50 - 76 - Calm - 30.30 - 10 CLR None
2017-10-21 22:55 57 50 - 76 - Calm - 30.30 - 10 CLR None
2017-10-21 22:35 63 48 - 59 - Calm - 30.31 - 10 CLR None
2017-10-21 22:15 61 48 - 63 200° 3 - 30.31 - 10 CLR None
2017-10-21 21:50 64 48 - 55 240° 6 - 30.31 - 10 CLR None
2017-10-21 20:50 64 48 - 55 190° 7 - 30.30 - 10 CLR None

Support USWX by starting your Amazon purchase here.